Mesquite's Hourly Summary for Saturday, March 18, 2017
Hour Temp
(f)
RH
(%)
Solar Rad.
(MJ/m2)
Rainfall
(in)
Wind
(mph)
3/18/2017 12:00 AM 71 66 0 0 4.58
3/18/2017 1:00 AM 70 65 0 0 8
3/18/2017 2:00 AM 68 71 0 0 7.71
3/18/2017 3:00 AM 66 77 0 0 6.85
3/18/2017 4:00 AM 65 82 0 0 4.69
3/18/2017 5:00 AM 63 86 0 0 3.84
3/18/2017 6:00 AM 63 94 0 0 3.6
3/18/2017 7:00 AM 62 97 0 0 3.33
3/18/2017 8:00 AM 62 98 0.01 0 3.17
3/18/2017 9:00 AM 63 96 0.09 0 3.71
3/18/2017 10:00 AM 64 91 0.35 0 4.33
3/18/2017 11:00 AM 66 83 0.77 0 4.03
3/18/2017 12:00 PM 69 73 1.41 0 3.74
3/18/2017 1:00 PM 73 64 2.75 0 3.04
3/18/2017 2:00 PM 75 62 2.92 0 4.42
3/18/2017 3:00 PM 77 59 2.81 0 4.41
3/18/2017 4:00 PM 79 57 2.19 0 5.01
3/18/2017 5:00 PM 80 53 2.02 0 6.45
3/18/2017 6:00 PM 79 54 1.2 0 6.76
3/18/2017 7:00 PM 78 56 0.56 0 6.7
3/18/2017 8:00 PM 76 59 0.06 0 4.42
3/18/2017 9:00 PM 74 62 0 0 3.46
3/18/2017 10:00 PM 71 66 0 0 3.56
3/18/2017 11:00 PM 70 71 0 0 3.58
Data Summary 70 72 17.14 0.00 4.72